createdAt,value
2022-11-15T00:10:21.245Z,10.0
2022-11-15T00:22:21.301Z,10.1
2022-11-15T00:34:21.320Z,10.3
2022-11-15T00:46:21.193Z,10.3
2022-11-15T00:58:21.255Z,10.3
2022-11-15T01:10:21.203Z,10.4
2022-11-15T01:22:21.187Z,10.5
2022-11-15T01:34:21.302Z,10.5
2022-11-15T01:46:21.256Z,10.6
2022-11-15T01:58:21.308Z,10.9
2022-11-15T02:10:21.286Z,10.8
2022-11-15T02:22:21.189Z,10.7
2022-11-15T02:34:21.192Z,10.7
2022-11-15T02:46:21.298Z,10.7
2022-11-15T02:58:21.191Z,10.7
2022-11-15T03:10:21.186Z,10.6
2022-11-15T03:22:21.275Z,10.6
2022-11-15T03:34:21.304Z,10.7
2022-11-15T03:46:21.188Z,10.6
2022-11-15T03:58:21.189Z,10.4
2022-11-15T04:10:21.194Z,10.3
2022-11-15T04:22:21.193Z,10.3
2022-11-15T04:34:21.278Z,10.4
2022-11-15T04:46:21.244Z,10.3
2022-11-15T04:58:21.292Z,10.2
2022-11-15T05:10:21.192Z,10.1
2022-11-15T05:22:21.227Z,9.8
2022-11-15T05:34:21.276Z,9.6
2022-11-15T05:46:21.190Z,9.6
2022-11-15T05:58:21.299Z,9.3
2022-11-15T06:10:21.196Z,9.5
2022-11-15T06:22:21.194Z,9.7
2022-11-15T06:34:21.308Z,9.8
2022-11-15T06:46:21.339Z,9.8
2022-11-15T06:58:21.303Z,9.8
2022-11-15T07:10:21.772Z,9.8
2022-11-15T07:22:21.197Z,9.8
2022-11-15T07:34:21.202Z,9.8
2022-11-15T07:46:21.299Z,9.8
2022-11-15T07:58:21.276Z,9.8
2022-11-15T08:10:21.194Z,10.0
2022-11-15T08:22:21.190Z,10.2
2022-11-15T08:34:21.199Z,10.4
2022-11-15T08:46:21.278Z,10.6
2022-11-15T08:58:21.264Z,10.7
2022-11-15T09:10:21.283Z,10.8
2022-11-15T09:22:21.241Z,10.9
2022-11-15T09:34:21.204Z,11.1
2022-11-15T09:46:21.272Z,11.3
2022-11-15T09:58:21.196Z,11.3
2022-11-15T10:10:21.189Z,11.4
2022-11-15T10:22:21.310Z,11.9
2022-11-15T10:34:21.236Z,12.1
2022-11-15T10:46:45.194Z,12.0
2022-11-15T10:58:21.260Z,12.1
2022-11-15T11:10:44.568Z,11.8
2022-11-15T11:22:21.191Z,11.7
2022-11-15T11:34:21.192Z,12.0
2022-11-15T11:46:21.191Z,13.0
2022-11-15T11:58:21.194Z,13.0
2022-11-15T12:10:21.193Z,13.5
2022-11-15T12:22:21.192Z,12.8
2022-11-15T12:34:21.290Z,12.8
2022-11-15T12:46:21.273Z,12.6
2022-11-15T12:58:21.314Z,12.6
2022-11-15T13:10:26.604Z,12.6
2022-11-15T13:22:21.197Z,12.7
2022-11-15T13:34:49.489Z,12.8
2022-11-15T13:46:21.251Z,12.6
2022-11-15T13:58:24.141Z,12.2
2022-11-15T14:10:21.200Z,12.1
2022-11-15T14:22:21.306Z,12.0
2022-11-15T14:34:21.202Z,11.9
2022-11-15T14:46:22.534Z,11.8
2022-11-15T14:58:21.282Z,11.6
2022-11-15T15:10:39.401Z,11.5
2022-11-15T15:22:21.318Z,11.4
2022-11-15T15:34:21.200Z,11.5
2022-11-15T15:46:21.197Z,11.7
2022-11-15T15:58:21.185Z,11.5
2022-11-15T16:10:21.294Z,11.5
2022-11-15T16:22:21.302Z,11.5
2022-11-15T16:34:21.199Z,11.3
2022-11-15T16:46:21.307Z,11.2
2022-11-15T16:58:21.297Z,10.9
2022-11-15T17:10:21.300Z,10.8
2022-11-15T17:22:21.287Z,10.8
2022-11-15T17:34:21.196Z,10.9
2022-11-15T17:46:21.289Z,11.0
2022-11-15T17:58:21.273Z,11.0
2022-11-15T18:10:21.203Z,11.1
2022-11-15T18:22:21.310Z,11.0
2022-11-15T18:34:21.194Z,11.0
2022-11-15T18:46:21.249Z,10.9
2022-11-15T18:58:21.310Z,10.8
2022-11-15T19:10:21.303Z,10.6
2022-11-15T19:22:21.191Z,10.5
2022-11-15T19:34:21.208Z,10.4
2022-11-15T19:46:21.202Z,10.4
2022-11-15T19:58:21.194Z,10.4
2022-11-15T20:10:21.204Z,10.3
2022-11-15T20:22:21.207Z,10.3
2022-11-15T20:34:21.194Z,10.3
2022-11-15T20:46:21.192Z,10.3
2022-11-15T20:58:21.256Z,10.4
2022-11-15T21:10:21.298Z,10.3
2022-11-15T21:22:21.189Z,10.3
2022-11-15T21:34:21.204Z,10.2
2022-11-15T21:46:21.245Z,10.2
2022-11-15T21:58:21.305Z,10.1
2022-11-15T22:10:21.308Z,10.1
2022-11-15T22:22:21.187Z,10.0
2022-11-15T22:34:21.190Z,9.9
2022-11-15T22:46:21.190Z,9.9
2022-11-15T22:58:21.319Z,10.0
2022-11-15T23:10:21.287Z,10.0
2022-11-15T23:22:21.240Z,10.0
2022-11-15T23:34:22.502Z,10.0
2022-11-15T23:46:21.198Z,10.0
2022-11-15T23:58:21.239Z,9.9
